createdAt,value
2022-12-27T00:01:23.077Z,0.70
2022-12-27T00:04:25.680Z,0.70
2022-12-27T00:07:28.218Z,0.60
2022-12-27T00:10:30.736Z,0.80
2022-12-27T00:13:33.327Z,0.57
2022-12-27T00:16:37.344Z,1.13
2022-12-27T00:19:39.914Z,0.50
2022-12-27T00:22:42.491Z,0.73
2022-12-27T00:25:45.026Z,0.80
2022-12-27T00:28:48.433Z,0.60
2022-12-27T00:31:52.414Z,0.88
2022-12-27T00:34:55.001Z,0.70
2022-12-27T00:37:57.506Z,0.80
2022-12-27T00:41:00.265Z,0.80
2022-12-27T00:44:02.816Z,1.00
2022-12-27T00:47:06.742Z,0.97
2022-12-27T00:50:10.094Z,0.77
2022-12-27T00:53:13.532Z,0.85
2022-12-27T00:56:18.368Z,0.77
2022-12-27T00:59:20.920Z,1.03
2022-12-27T01:02:26.065Z,0.83
2022-12-27T01:05:28.852Z,0.80
2022-12-27T01:08:31.403Z,0.97
2022-12-27T01:11:34.601Z,1.13
2022-12-27T01:14:37.265Z,0.80
2022-12-27T01:17:41.256Z,0.80
2022-12-27T01:20:43.823Z,0.90
2022-12-27T01:23:46.813Z,0.80
2022-12-27T01:26:49.420Z,1.10
2022-12-27T01:29:51.913Z,1.43
2022-12-27T01:32:55.839Z,1.10
2022-12-27T01:35:58.435Z,1.20
2022-12-27T01:39:01.507Z,1.30
2022-12-27T01:42:21.636Z,1.17
2022-12-27T01:45:25.607Z,0.80
2022-12-27T01:48:29.513Z,0.70
2022-12-27T01:51:32.031Z,1.03
2022-12-27T01:54:34.589Z,1.70
2022-12-27T01:57:37.173Z,0.90
2022-12-27T02:00:41.452Z,0.90
2022-12-27T02:03:48.781Z,1.33
2022-12-27T02:06:52.427Z,1.10
2022-12-27T02:09:57.607Z,1.08
2022-12-27T02:13:00.941Z,0.90
2022-12-27T02:16:10.109Z,0.90
2022-12-27T02:19:21.235Z,1.00
2022-12-27T02:22:55.583Z,1.33
2022-12-27T02:26:14.755Z,1.45
2022-12-27T02:29:28.503Z,1.10
2022-12-27T02:32:35.109Z,0.85
2022-12-27T02:35:40.367Z,1.30
2022-12-27T02:38:46.076Z,1.10
2022-12-27T02:42:06.634Z,0.90
2022-12-27T02:45:35.567Z,1.10
2022-12-27T02:48:56.055Z,1.10
2022-12-27T02:52:20.868Z,1.17
2022-12-27T02:55:34.138Z,1.20
2022-12-27T02:58:44.113Z,1.23
2022-12-27T03:02:11.438Z,1.20
2022-12-27T03:05:19.617Z,2.13
2022-12-27T03:08:28.791Z,1.57
2022-12-27T03:11:54.313Z,1.20
2022-12-27T03:15:18.610Z,1.20
2022-12-27T03:18:27.631Z,1.13
2022-12-27T03:21:49.977Z,1.13
2022-12-27T03:25:11.963Z,1.10
2022-12-27T03:28:35.741Z,1.27
2022-12-27T03:31:58.595Z,1.27
2022-12-27T03:35:08.526Z,0.70
2022-12-27T03:38:12.700Z,1.30
2022-12-27T03:41:35.846Z,0.73
2022-12-27T03:44:38.524Z,1.20
2022-12-27T03:47:44.972Z,1.77
2022-12-27T03:50:52.848Z,1.00
2022-12-27T03:53:59.921Z,0.80
2022-12-27T03:57:05.652Z,1.20
2022-12-27T04:00:09.054Z,1.10
2022-12-27T04:03:11.699Z,0.90
2022-12-27T04:06:15.647Z,1.30
2022-12-27T04:12:55.740Z,1.40
2022-12-27T04:16:16.126Z,0.87
2022-12-27T04:19:36.590Z,1.10
2022-12-27T04:22:58.328Z,1.20
2022-12-27T04:26:18.596Z,1.70
2022-12-27T04:29:38.950Z,1.60
2022-12-27T04:32:59.187Z,1.10
2022-12-27T04:36:06.169Z,1.17
2022-12-27T04:39:10.660Z,0.93
2022-12-27T04:42:30.776Z,1.30
2022-12-27T04:45:51.237Z,0.97
2022-12-27T04:49:11.775Z,0.80
2022-12-27T04:52:36.572Z,1.00
2022-12-27T04:55:40.468Z,0.90
2022-12-27T05:02:04.589Z,1.10
2022-12-27T05:05:08.581Z,1.00
2022-12-27T05:11:50.258Z,1.40
2022-12-27T05:14:52.787Z,1.10
2022-12-27T05:17:55.365Z,1.53
2022-12-27T05:21:02.815Z,1.07
2022-12-27T05:24:23.930Z,1.03
2022-12-27T05:27:27.848Z,0.87
2022-12-27T05:33:33.122Z,0.77
2022-12-27T05:36:35.707Z,1.00
2022-12-27T05:39:38.275Z,1.10
2022-12-27T05:42:42.381Z,1.07
2022-12-27T05:45:44.936Z,1.00
2022-12-27T05:48:47.832Z,1.10
2022-12-27T05:51:50.390Z,0.95
2022-12-27T05:54:52.958Z,0.90
2022-12-27T05:57:57.056Z,1.20
2022-12-27T06:01:00.196Z,0.93
2022-12-27T06:04:02.929Z,1.20
2022-12-27T06:10:10.166Z,1.40
2022-12-27T06:13:14.252Z,1.20
2022-12-27T06:16:16.947Z,1.07
2022-12-27T06:19:19.498Z,1.43
2022-12-27T06:22:22.006Z,1.00
2022-12-27T06:25:24.558Z,1.30
2022-12-27T06:28:28.383Z,1.07
2022-12-27T06:34:33.831Z,1.23
2022-12-27T06:37:36.329Z,1.27
2022-12-27T06:40:38.832Z,1.17
2022-12-27T06:43:42.777Z,1.77
2022-12-27T06:49:47.717Z,2.30
2022-12-27T06:52:50.382Z,2.77
2022-12-27T06:55:52.961Z,2.20
2022-12-27T06:58:56.930Z,2.43
2022-12-27T07:01:59.686Z,2.20
2022-12-27T07:05:02.540Z,2.25
2022-12-27T07:08:05.526Z,2.10
2022-12-27T07:11:10.402Z,1.95
2022-12-27T07:14:14.407Z,2.30
2022-12-27T07:17:17.188Z,1.87
2022-12-27T07:20:19.861Z,1.90
2022-12-27T07:23:22.425Z,2.20
2022-12-27T07:26:27.845Z,1.90
2022-12-27T07:29:31.847Z,1.97
2022-12-27T07:32:34.416Z,2.37
2022-12-27T07:35:40.871Z,2.37
2022-12-27T07:38:47.572Z,2.33
2022-12-27T07:41:50.155Z,2.67
2022-12-27T07:44:54.033Z,2.00
2022-12-27T07:50:59.376Z,3.13
2022-12-27T07:54:01.939Z,2.47
2022-12-27T07:57:04.521Z,2.50
2022-12-27T08:00:09.953Z,2.17
2022-12-27T08:03:12.605Z,2.20
2022-12-27T08:06:24.014Z,1.70
2022-12-27T08:09:28.322Z,1.10
2022-12-27T08:12:31.127Z,1.30
2022-12-27T08:15:35.107Z,1.10
2022-12-27T08:18:37.784Z,0.90
2022-12-27T08:21:40.442Z,0.90
2022-12-27T08:24:43.842Z,0.93
2022-12-27T08:27:46.504Z,1.00
2022-12-27T08:30:50.662Z,1.13
2022-12-27T08:33:58.234Z,1.37
2022-12-27T08:37:01.288Z,1.20
2022-12-27T08:40:04.038Z,1.30
2022-12-27T08:43:06.938Z,1.20
2022-12-27T08:46:10.964Z,1.30
2022-12-27T08:49:13.687Z,1.70
2022-12-27T08:52:16.204Z,2.10
2022-12-27T08:55:18.931Z,1.80
2022-12-27T08:58:21.581Z,2.43
2022-12-27T09:01:25.915Z,2.17
2022-12-27T09:04:28.677Z,2.03
2022-12-27T09:07:31.215Z,2.23
2022-12-27T09:10:33.702Z,2.10
2022-12-27T09:13:36.392Z,2.23
2022-12-27T09:16:40.896Z,2.20
2022-12-27T09:19:43.438Z,3.50
2022-12-27T09:22:46.132Z,2.50
2022-12-27T09:25:48.752Z,1.30
2022-12-27T09:28:51.846Z,2.37
2022-12-27T09:31:55.765Z,1.58
2022-12-27T09:38:00.755Z,1.97
2022-12-27T09:41:06.461Z,1.60
2022-12-27T09:44:13.376Z,1.80
2022-12-27T09:47:20.420Z,1.40
2022-12-27T09:50:26.913Z,1.33
2022-12-27T09:53:37.512Z,1.57
2022-12-27T09:57:17.826Z,1.20
2022-12-27T10:00:05.590Z,0.90
2022-12-27T10:03:10.358Z,0.80
2022-12-27T10:06:21.752Z,1.50
2022-12-27T10:09:44.431Z,0.90
2022-12-27T10:13:04.815Z,1.07
2022-12-27T10:16:17.709Z,1.37
2022-12-27T10:19:28.573Z,1.17
2022-12-27T10:22:35.800Z,1.00
2022-12-27T10:25:40.275Z,0.57
2022-12-27T10:28:45.162Z,1.27
2022-12-27T10:31:47.887Z,0.80
2022-12-27T10:34:55.706Z,1.10
2022-12-27T10:38:00.113Z,0.90
2022-12-27T10:41:14.939Z,0.77
2022-12-27T10:44:17.583Z,1.27
2022-12-27T10:47:20.172Z,0.90
2022-12-27T10:50:26.269Z,0.90
2022-12-27T10:53:32.592Z,0.90
2022-12-27T10:56:38.390Z,1.83
2022-12-27T10:59:41.056Z,0.97
2022-12-27T11:02:50.319Z,0.87
2022-12-27T11:06:02.481Z,0.90
2022-12-27T11:09:21.630Z,1.10
2022-12-27T11:12:26.007Z,1.00
2022-12-27T11:15:30.128Z,0.90
2022-12-27T11:18:35.480Z,1.47
2022-12-27T11:21:40.891Z,0.77
2022-12-27T11:24:47.227Z,1.50
2022-12-27T11:27:53.576Z,0.87
2022-12-27T11:30:57.861Z,1.00
2022-12-27T11:34:03.112Z,0.80
2022-12-27T11:37:13.066Z,0.90
2022-12-27T11:40:25.964Z,0.83
2022-12-27T11:43:35.206Z,1.40
2022-12-27T11:46:41.839Z,1.07
2022-12-27T11:49:48.186Z,0.80
2022-12-27T11:53:07.132Z,1.20
2022-12-27T11:56:20.345Z,0.80
2022-12-27T11:59:34.242Z,1.00
2022-12-27T12:02:54.118Z,1.10
2022-12-27T12:06:08.264Z,1.73
2022-12-27T12:09:28.457Z,0.83
2022-12-27T12:12:55.391Z,0.60
2022-12-27T12:16:35.026Z,0.87
2022-12-27T12:19:53.682Z,1.00
2022-12-27T12:23:06.927Z,0.90
2022-12-27T12:26:15.029Z,1.20
2022-12-27T12:29:33.526Z,1.60
2022-12-27T12:32:43.722Z,1.20
2022-12-27T12:35:56.560Z,1.00
2022-12-27T12:39:03.484Z,1.07
2022-12-27T12:42:20.905Z,1.00
2022-12-27T12:45:40.904Z,1.47
2022-12-27T12:49:01.544Z,0.87
2022-12-27T12:52:14.885Z,1.20
2022-12-27T12:55:40.223Z,1.05
2022-12-27T12:58:50.044Z,0.77
2022-12-27T13:01:59.012Z,1.20
2022-12-27T13:05:08.574Z,1.50
2022-12-27T13:08:14.478Z,0.80
2022-12-27T13:11:34.219Z,1.07
2022-12-27T13:14:55.128Z,0.90
2022-12-27T13:18:06.877Z,0.73
2022-12-27T13:21:20.308Z,1.03
2022-12-27T13:24:30.101Z,1.23
2022-12-27T13:27:35.585Z,0.90
2022-12-27T13:30:43.927Z,1.03
2022-12-27T13:33:51.067Z,0.53
2022-12-27T13:37:06.986Z,1.10
2022-12-27T13:40:28.812Z,1.27
2022-12-27T13:43:51.070Z,1.20
2022-12-27T13:47:25.103Z,0.80
2022-12-27T13:50:41.588Z,0.90
2022-12-27T13:54:17.232Z,0.90
2022-12-27T13:57:35.684Z,0.70
2022-12-27T14:00:44.553Z,1.43
2022-12-27T14:03:59.185Z,2.50
2022-12-27T14:07:29.452Z,2.60
2022-12-27T14:10:37.728Z,1.20
2022-12-27T14:13:43.333Z,0.80
2022-12-27T14:16:59.395Z,1.90
2022-12-27T14:20:12.694Z,2.37
2022-12-27T14:23:25.133Z,2.08
2022-12-27T14:26:59.469Z,3.40
2022-12-27T14:30:18.988Z,3.90
2022-12-27T14:33:54.741Z,5.83
2022-12-27T14:37:22.572Z,4.43
2022-12-27T14:40:53.285Z,2.80
2022-12-27T14:44:29.383Z,2.47
2022-12-27T14:47:54.403Z,2.10
2022-12-27T14:52:00.865Z,4.00
2022-12-27T14:55:26.186Z,3.13
2022-12-27T14:58:46.653Z,1.80
2022-12-27T15:02:06.366Z,2.13
2022-12-27T15:05:20.271Z,2.30
2022-12-27T15:08:49.469Z,1.80
2022-12-27T15:12:03.670Z,1.30
2022-12-27T15:15:18.940Z,1.40
2022-12-27T15:18:39.260Z,2.00
2022-12-27T15:22:00.079Z,2.27
2022-12-27T15:25:09.363Z,2.13
2022-12-27T15:28:18.998Z,1.83
2022-12-27T15:31:28.151Z,2.83
2022-12-27T15:34:39.940Z,3.00
2022-12-27T15:37:53.850Z,1.70
2022-12-27T15:41:23.155Z,1.20
2022-12-27T15:44:44.971Z,1.73
2022-12-27T15:47:57.642Z,2.27
2022-12-27T15:51:05.166Z,1.63
2022-12-27T15:54:28.268Z,1.30
2022-12-27T15:57:52.557Z,1.60
2022-12-27T16:04:42.816Z,1.67
2022-12-27T16:07:47.170Z,1.00
2022-12-27T16:10:51.168Z,1.17
2022-12-27T16:14:31.607Z,1.50
2022-12-27T16:17:39.454Z,1.00
2022-12-27T16:20:55.501Z,1.33
2022-12-27T16:24:01.549Z,1.30
2022-12-27T16:27:05.662Z,1.50
2022-12-27T16:30:11.333Z,1.80
2022-12-27T16:33:23.836Z,1.50
2022-12-27T16:36:30.122Z,1.50
2022-12-27T16:39:46.933Z,1.43
2022-12-27T16:43:32.334Z,2.33
2022-12-27T16:46:47.627Z,1.83
2022-12-27T16:50:03.480Z,2.20
2022-12-27T16:53:16.207Z,1.80
2022-12-27T16:56:21.290Z,2.80
2022-12-27T16:59:58.277Z,3.53
2022-12-27T17:03:27.988Z,4.87
2022-12-27T17:06:50.387Z,4.50
2022-12-27T17:09:54.438Z,3.47
2022-12-27T17:13:00.199Z,3.10
2022-12-27T17:16:07.784Z,3.07
2022-12-27T17:19:17.188Z,2.80
2022-12-27T17:22:20.396Z,2.70
2022-12-27T17:25:30.970Z,2.50
2022-12-27T17:28:38.375Z,2.93
2022-12-27T17:31:46.836Z,2.30
2022-12-27T17:34:55.673Z,2.80
2022-12-27T17:38:11.741Z,2.67
2022-12-27T17:41:45.670Z,2.27
2022-12-27T17:45:00.240Z,2.30
2022-12-27T17:48:09.718Z,3.00
2022-12-27T17:51:13.674Z,2.70
2022-12-27T17:57:56.773Z,3.13
2022-12-27T18:01:01.911Z,2.80
2022-12-27T18:04:06.142Z,3.03
2022-12-27T18:07:10.303Z,2.57
2022-12-27T18:10:20.320Z,2.03
2022-12-27T18:13:27.206Z,2.87
2022-12-27T18:16:35.060Z,3.43
2022-12-27T18:19:38.330Z,3.50
2022-12-27T18:22:40.907Z,4.70
2022-12-27T18:26:02.924Z,3.77
2022-12-27T18:29:07.795Z,4.30
2022-12-27T18:32:13.880Z,4.73
2022-12-27T18:35:24.355Z,4.73
2022-12-27T18:38:29.491Z,4.17
2022-12-27T18:41:36.474Z,3.90
2022-12-27T18:44:45.549Z,3.30
2022-12-27T18:47:49.499Z,4.40
2022-12-27T18:50:53.918Z,5.03
2022-12-27T18:53:56.500Z,3.93
2022-12-27T18:57:00.617Z,4.00
2022-12-27T19:00:16.225Z,3.97
2022-12-27T19:03:20.190Z,5.93
2022-12-27T19:06:22.814Z,6.10
2022-12-27T19:09:28.426Z,3.93
2022-12-27T19:12:34.068Z,3.80
2022-12-27T19:15:42.138Z,3.67
2022-12-27T19:18:51.307Z,6.57
2022-12-27T19:21:55.326Z,6.17
2022-12-27T19:25:00.302Z,5.37
2022-12-27T19:28:05.873Z,9.33
2022-12-27T19:31:18.128Z,8.27
2022-12-27T19:34:21.551Z,4.17
2022-12-27T19:37:26.448Z,3.00
2022-12-27T19:40:29.075Z,3.60
2022-12-27T19:43:35.787Z,3.93
2022-12-27T19:46:40.028Z,3.90
2022-12-27T19:49:44.604Z,4.60
2022-12-27T19:52:50.822Z,5.00
2022-12-27T19:55:53.350Z,4.13
2022-12-27T19:58:56.252Z,4.40
2022-12-27T20:02:00.451Z,3.40
2022-12-27T20:05:03.267Z,3.87
2022-12-27T20:08:06.623Z,3.13
2022-12-27T20:11:14.855Z,3.50
2022-12-27T20:14:18.455Z,4.20
2022-12-27T20:17:23.271Z,3.65
2022-12-27T20:20:25.889Z,4.87
2022-12-27T20:23:28.502Z,3.70
2022-12-27T20:26:31.161Z,4.20
2022-12-27T20:29:33.977Z,3.87
2022-12-27T20:32:38.328Z,3.73
2022-12-27T20:35:41.250Z,4.03
2022-12-27T20:38:44.087Z,3.35
2022-12-27T20:41:46.863Z,2.97
2022-12-27T20:44:49.641Z,4.20
2022-12-27T20:47:53.597Z,3.00
2022-12-27T20:50:56.489Z,3.90
2022-12-27T20:54:01.822Z,3.88
2022-12-27T20:57:04.540Z,3.97
2022-12-27T21:00:09.635Z,4.30
2022-12-27T21:03:13.605Z,4.20
2022-12-27T21:06:18.567Z,4.90
2022-12-27T21:09:21.177Z,4.83
2022-12-27T21:12:23.803Z,5.20
2022-12-27T21:15:27.490Z,4.87
2022-12-27T21:18:34.644Z,5.27
2022-12-27T21:21:38.885Z,5.50
2022-12-27T21:24:41.409Z,5.67
2022-12-27T21:27:44.252Z,6.27
2022-12-27T21:30:56.185Z,5.70
2022-12-27T21:34:00.781Z,7.70
2022-12-27T21:37:08.677Z,6.23
2022-12-27T21:40:14.233Z,6.17
2022-12-27T21:43:16.882Z,6.67
2022-12-27T21:46:21.578Z,8.00
2022-12-27T21:49:25.851Z,7.03
2022-12-27T21:52:29.020Z,6.90
2022-12-27T21:55:31.574Z,8.45
2022-12-27T21:58:35.696Z,7.33
2022-12-27T22:01:51.999Z,6.93
2022-12-27T22:04:56.817Z,7.10
2022-12-27T22:07:59.321Z,6.63
2022-12-27T22:11:01.855Z,6.57
2022-12-27T22:14:05.065Z,6.87
2022-12-27T22:17:07.718Z,6.00
2022-12-27T22:20:12.569Z,6.97
2022-12-27T22:23:15.409Z,6.30
2022-12-27T22:26:19.445Z,5.03
2022-12-27T22:29:23.930Z,4.83
2022-12-27T22:32:26.678Z,3.53
2022-12-27T22:35:31.070Z,3.07
2022-12-27T22:38:33.865Z,2.63
2022-12-27T22:41:37.581Z,2.60
2022-12-27T22:44:40.318Z,2.30
2022-12-27T22:47:43.262Z,2.05
2022-12-27T22:50:47.233Z,2.30
2022-12-27T22:56:52.288Z,1.93
2022-12-27T22:59:54.896Z,2.53
2022-12-27T23:02:57.587Z,2.57
2022-12-27T23:09:05.984Z,2.38
2022-12-27T23:12:08.869Z,2.00
2022-12-27T23:15:12.177Z,2.60
2022-12-27T23:18:14.761Z,2.78
2022-12-27T23:21:24.258Z,2.10
2022-12-27T23:24:27.510Z,1.90
2022-12-27T23:27:30.143Z,2.17
2022-12-27T23:30:32.762Z,2.43
2022-12-27T23:33:35.634Z,2.00
2022-12-27T23:36:39.672Z,1.90
2022-12-27T23:39:42.303Z,1.87
2022-12-27T23:42:44.940Z,1.93
2022-12-27T23:45:47.485Z,2.47
2022-12-27T23:48:50.648Z,2.67
2022-12-27T23:51:54.495Z,3.25
2022-12-27T23:58:02.936Z,2.58
